createdAt,value
2022-11-05T00:01:47.833Z,5.70
2022-11-05T00:04:33.040Z,5.15
2022-11-05T00:07:24.595Z,4.43
2022-11-05T00:10:00.806Z,4.13
2022-11-05T00:12:46.092Z,4.60
2022-11-05T00:15:31.505Z,5.47
2022-11-05T00:18:00.727Z,4.35
2022-11-05T00:20:28.556Z,5.28
2022-11-05T00:23:18.628Z,4.10
2022-11-05T00:25:54.740Z,4.00
2022-11-05T00:28:22.547Z,3.97
2022-11-05T00:30:51.810Z,4.83
2022-11-05T00:33:20.980Z,3.10
2022-11-05T00:35:48.706Z,2.88
2022-11-05T00:38:18.657Z,2.00
2022-11-05T00:40:46.656Z,3.50
2022-11-05T00:43:31.845Z,3.40
2022-11-05T00:45:59.852Z,2.75
2022-11-05T00:48:46.679Z,4.57
2022-11-05T00:51:14.502Z,3.25
2022-11-05T00:53:42.508Z,3.35
2022-11-05T00:56:12.613Z,3.08
2022-11-05T00:58:40.413Z,2.83
2022-11-05T01:01:11.541Z,2.90
2022-11-05T01:03:41.022Z,4.10
2022-11-05T01:06:10.907Z,3.17
2022-11-05T01:08:39.004Z,3.22
2022-11-05T01:11:11.461Z,3.10
2022-11-05T01:13:40.458Z,2.38
2022-11-05T01:16:10.695Z,2.45
2022-11-05T01:18:41.910Z,3.00
2022-11-05T01:21:14.536Z,4.17
2022-11-05T01:23:42.523Z,3.47
2022-11-05T01:26:10.372Z,3.33
2022-11-05T01:28:38.450Z,3.35
2022-11-05T01:31:06.911Z,3.05
2022-11-05T01:33:34.739Z,2.47
2022-11-05T01:36:07.535Z,2.78
2022-11-05T01:38:35.346Z,2.47
2022-11-05T01:41:03.148Z,3.30
2022-11-05T01:43:47.141Z,3.53
2022-11-05T01:46:17.260Z,2.40
2022-11-05T01:48:45.162Z,3.58
2022-11-05T01:51:17.145Z,2.20
2022-11-05T01:53:49.494Z,2.10
2022-11-05T01:56:23.067Z,2.25
2022-11-05T01:58:54.842Z,2.30
2022-11-05T02:01:23.704Z,2.22
2022-11-05T02:03:56.439Z,3.08
2022-11-05T02:06:31.198Z,2.40
2022-11-05T02:09:03.922Z,2.25
2022-11-05T02:11:31.929Z,2.30
2022-11-05T02:14:00.333Z,2.10
2022-11-05T02:16:39.569Z,2.08
2022-11-05T02:19:31.150Z,2.03
2022-11-05T02:22:40.832Z,2.50
2022-11-05T02:25:28.420Z,2.70
2022-11-05T02:28:27.636Z,2.65
2022-11-05T02:31:01.750Z,3.30
2022-11-05T02:33:36.688Z,2.45
2022-11-05T02:36:22.383Z,2.42
2022-11-05T02:38:59.350Z,2.40
2022-11-05T02:41:36.451Z,3.17
2022-11-05T02:44:15.997Z,2.90
2022-11-05T02:46:53.070Z,2.90
2022-11-05T02:49:32.658Z,2.83
2022-11-05T02:52:06.078Z,2.42
2022-11-05T02:54:39.727Z,3.38
2022-11-05T02:57:07.989Z,3.20
2022-11-05T02:59:35.908Z,2.40
2022-11-05T03:02:06.941Z,2.53
2022-11-05T03:04:34.813Z,2.30
2022-11-05T03:07:22.880Z,4.32
2022-11-05T03:10:22.320Z,2.20
2022-11-05T03:13:04.957Z,2.47
2022-11-05T03:15:51.759Z,2.92
2022-11-05T03:18:27.946Z,2.40
2022-11-05T03:21:03.266Z,2.78
2022-11-05T03:23:37.523Z,2.47
2022-11-05T03:26:10.960Z,2.58
2022-11-05T03:28:42.473Z,2.85
2022-11-05T03:31:15.248Z,2.50
2022-11-05T03:33:45.993Z,2.95
2022-11-05T03:36:20.511Z,2.55
2022-11-05T03:38:52.441Z,3.00
2022-11-05T03:41:22.454Z,3.43
2022-11-05T03:43:53.350Z,2.93
2022-11-05T03:46:28.785Z,2.50
2022-11-05T03:49:03.428Z,3.30
2022-11-05T03:51:41.165Z,2.80
2022-11-05T03:54:09.169Z,3.90
2022-11-05T03:56:40.909Z,3.60
2022-11-05T03:59:11.779Z,3.47
2022-11-05T04:01:40.435Z,4.28
2022-11-05T04:04:10.324Z,4.30
2022-11-05T04:06:55.811Z,4.15
2022-11-05T04:09:43.600Z,4.10
2022-11-05T04:12:29.519Z,3.70
2022-11-05T04:14:57.457Z,4.80
2022-11-05T04:17:24.364Z,3.90
2022-11-05T04:20:10.969Z,5.28
2022-11-05T04:22:56.420Z,5.73
2022-11-05T04:25:24.481Z,5.07
2022-11-05T04:27:52.459Z,5.25
2022-11-05T04:30:20.283Z,4.95
2022-11-05T04:33:06.996Z,5.90
2022-11-05T04:35:38.614Z,6.15
2022-11-05T04:38:07.810Z,7.33
2022-11-05T04:40:36.178Z,6.30
2022-11-05T04:43:03.985Z,6.50
2022-11-05T04:45:34.260Z,6.13
2022-11-05T04:48:02.124Z,5.50
2022-11-05T04:50:30.073Z,5.05
2022-11-05T04:52:59.514Z,6.57
2022-11-05T04:55:28.409Z,5.95
2022-11-05T04:57:56.668Z,6.53
2022-11-05T05:00:25.317Z,5.60
2022-11-05T05:02:53.162Z,5.85
2022-11-05T05:05:21.956Z,6.10
2022-11-05T05:07:49.817Z,7.37
2022-11-05T05:10:19.392Z,6.75
2022-11-05T05:12:48.397Z,6.07
2022-11-05T05:15:16.218Z,6.85
2022-11-05T05:17:43.943Z,6.45
2022-11-05T05:20:29.224Z,7.00
2022-11-05T05:22:57.088Z,7.22
2022-11-05T05:25:26.206Z,7.22
2022-11-05T05:27:57.587Z,7.13
2022-11-05T05:30:25.998Z,8.27
2022-11-05T05:32:53.682Z,8.73
2022-11-05T05:35:21.390Z,8.43
2022-11-05T05:37:49.127Z,9.57
2022-11-05T05:40:16.909Z,7.60
2022-11-05T05:42:45.963Z,7.97
2022-11-05T05:45:13.740Z,9.02
2022-11-05T05:47:41.430Z,7.88
2022-11-05T05:50:09.332Z,8.63
2022-11-05T05:52:37.188Z,8.10
2022-11-05T05:55:07.682Z,9.20
2022-11-05T05:57:35.902Z,8.48
2022-11-05T06:00:06.761Z,9.15
2022-11-05T06:02:39.425Z,8.40
2022-11-05T06:05:08.038Z,10.00
2022-11-05T06:07:37.428Z,10.80
2022-11-05T06:10:07.327Z,10.50
2022-11-05T06:12:35.074Z,10.30
2022-11-05T06:15:02.760Z,10.17
2022-11-05T06:17:31.824Z,10.95
2022-11-05T06:19:59.605Z,11.23
2022-11-05T06:22:27.324Z,10.90
2022-11-05T06:24:55.065Z,12.38
2022-11-05T06:27:22.919Z,13.27
2022-11-05T06:29:50.728Z,12.90
2022-11-05T06:32:20.521Z,12.27
2022-11-05T06:34:49.593Z,12.68
2022-11-05T06:37:17.437Z,12.37
2022-11-05T06:39:45.198Z,11.97
2022-11-05T06:42:18.312Z,10.88
2022-11-05T06:44:48.528Z,12.75
2022-11-05T06:47:16.354Z,14.30
2022-11-05T06:49:44.060Z,11.30
2022-11-05T06:52:13.598Z,12.15
2022-11-05T06:54:42.385Z,12.52
2022-11-05T06:57:10.936Z,13.90
2022-11-05T06:59:39.228Z,13.83
2022-11-05T07:02:07.865Z,12.20
2022-11-05T07:04:35.610Z,14.33
2022-11-05T07:07:03.376Z,14.70
2022-11-05T07:09:32.538Z,11.75
2022-11-05T07:12:00.301Z,14.00
2022-11-05T07:14:28.044Z,13.82
2022-11-05T07:16:57.862Z,14.98
2022-11-05T07:19:25.709Z,14.95
2022-11-05T07:21:55.826Z,15.23
2022-11-05T07:24:23.551Z,14.13
2022-11-05T07:26:52.745Z,15.30
2022-11-05T07:29:20.485Z,13.00
2022-11-05T07:31:48.561Z,16.27
2022-11-05T07:34:16.261Z,14.40
2022-11-05T07:36:46.103Z,13.85
2022-11-05T07:39:13.847Z,13.13
2022-11-05T07:41:41.632Z,14.43
2022-11-05T07:44:11.618Z,14.10
2022-11-05T07:46:39.386Z,14.32
2022-11-05T07:49:07.130Z,14.52
2022-11-05T07:51:34.940Z,14.80
2022-11-05T07:54:02.942Z,15.05
2022-11-05T07:56:30.651Z,13.20
2022-11-05T07:58:58.484Z,15.38
2022-11-05T08:01:29.873Z,15.07
2022-11-05T08:03:57.769Z,13.50
2022-11-05T08:06:25.875Z,13.77
2022-11-05T08:08:54.432Z,15.90
2022-11-05T08:11:23.423Z,13.43
2022-11-05T08:13:51.539Z,14.48
2022-11-05T08:16:19.547Z,12.43
2022-11-05T08:18:48.648Z,10.20
2022-11-05T08:21:18.571Z,10.85
2022-11-05T08:23:46.370Z,9.00
2022-11-05T08:26:14.280Z,9.00
2022-11-05T08:28:41.972Z,8.70
2022-11-05T08:31:09.810Z,8.18
2022-11-05T08:33:37.499Z,7.20
2022-11-05T08:36:07.289Z,6.60
2022-11-05T08:38:35.068Z,6.15
2022-11-05T08:41:02.831Z,5.85
2022-11-05T08:43:32.614Z,6.28
2022-11-05T08:46:03.161Z,6.05
2022-11-05T08:48:30.896Z,5.73
2022-11-05T08:51:01.305Z,5.67
2022-11-05T08:53:30.488Z,5.43
2022-11-05T08:56:00.660Z,5.90
2022-11-05T08:58:28.585Z,5.13
2022-11-05T09:01:01.853Z,4.90
2022-11-05T09:03:32.430Z,4.50
2022-11-05T09:06:00.176Z,4.38
2022-11-05T09:08:27.971Z,4.90
2022-11-05T09:10:57.302Z,5.28
2022-11-05T09:13:25.727Z,5.70
2022-11-05T09:15:54.065Z,4.70
2022-11-05T09:18:22.117Z,4.63
2022-11-05T09:20:49.863Z,5.23
2022-11-05T09:23:18.398Z,5.50
2022-11-05T09:25:46.478Z,7.22
2022-11-05T09:28:17.980Z,6.22
2022-11-05T09:30:47.590Z,6.77
2022-11-05T09:33:16.147Z,6.97
2022-11-05T09:35:44.517Z,7.80
2022-11-05T09:38:12.357Z,7.07
2022-11-05T09:40:45.805Z,8.60
2022-11-05T09:43:19.393Z,8.02
2022-11-05T09:45:51.081Z,8.23
2022-11-05T09:48:22.484Z,8.32
2022-11-05T09:50:52.241Z,8.95
2022-11-05T09:53:23.803Z,9.87
2022-11-05T09:55:54.477Z,8.80
2022-11-05T09:58:31.071Z,10.82
2022-11-05T10:00:59.658Z,9.50
2022-11-05T10:03:30.979Z,9.05
2022-11-05T10:06:09.336Z,11.18
2022-11-05T10:08:43.401Z,10.63
2022-11-05T10:11:16.804Z,18.63
2022-11-05T10:13:48.718Z,12.23
2022-11-05T10:16:24.875Z,9.37
2022-11-05T10:18:56.170Z,10.10
2022-11-05T10:21:44.108Z,13.43
2022-11-05T10:24:15.595Z,14.15
2022-11-05T10:26:47.719Z,11.68
2022-11-05T10:29:23.474Z,16.85
2022-11-05T10:31:54.902Z,10.93
2022-11-05T10:34:27.173Z,10.13
2022-11-05T10:36:55.200Z,10.17
2022-11-05T10:39:24.310Z,8.80
2022-11-05T10:42:07.414Z,9.30
2022-11-05T10:44:45.168Z,10.80
2022-11-05T10:47:45.984Z,11.55
2022-11-05T10:50:17.951Z,10.95
2022-11-05T10:52:56.416Z,11.02
2022-11-05T10:55:25.971Z,9.20
2022-11-05T10:57:54.325Z,9.90
2022-11-05T11:00:28.157Z,10.45
2022-11-05T11:02:59.170Z,11.10
2022-11-05T11:05:32.524Z,12.77
2022-11-05T11:08:25.006Z,10.57
2022-11-05T11:10:55.620Z,10.23
2022-11-05T11:13:28.169Z,9.07
2022-11-05T11:16:15.421Z,11.47
2022-11-05T11:18:44.477Z,18.10
2022-11-05T11:21:15.678Z,13.27
2022-11-05T11:23:53.917Z,11.40
2022-11-05T11:26:22.878Z,10.60
2022-11-05T11:28:56.750Z,9.53
2022-11-05T11:31:28.285Z,10.13
2022-11-05T11:34:01.918Z,12.15
2022-11-05T11:36:35.669Z,10.32
2022-11-05T11:39:07.963Z,9.13
2022-11-05T11:41:41.871Z,7.90
2022-11-05T11:44:16.401Z,8.90
2022-11-05T11:46:48.636Z,7.50
2022-11-05T11:49:33.459Z,7.40
2022-11-05T11:52:08.371Z,8.37
2022-11-05T11:54:37.093Z,8.02
2022-11-05T11:57:21.555Z,7.53
2022-11-05T12:03:14.284Z,7.68
2022-11-05T12:05:48.479Z,9.40
2022-11-05T12:08:54.178Z,8.38
2022-11-05T12:11:30.829Z,8.87
2022-11-05T12:14:05.146Z,11.10
2022-11-05T12:17:02.693Z,10.47
2022-11-05T12:19:54.421Z,8.18
2022-11-05T12:22:34.492Z,7.90
2022-11-05T12:25:22.539Z,10.05
2022-11-05T12:28:11.757Z,7.00
2022-11-05T12:30:53.058Z,9.15
2022-11-05T12:33:28.432Z,7.37
2022-11-05T12:36:07.505Z,6.50
2022-11-05T12:39:02.683Z,6.82
2022-11-05T12:41:34.871Z,6.07
2022-11-05T12:44:17.336Z,5.20
2022-11-05T12:46:54.632Z,5.50
2022-11-05T12:49:35.575Z,7.30
2022-11-05T12:52:18.799Z,6.05
2022-11-05T12:55:01.043Z,4.65
2022-11-05T12:57:31.907Z,5.30
2022-11-05T13:00:10.574Z,7.57
2022-11-05T13:02:46.152Z,5.15
2022-11-05T13:05:17.919Z,5.37
2022-11-05T13:07:54.412Z,5.57
2022-11-05T13:10:30.031Z,4.43
2022-11-05T13:13:03.443Z,5.05
2022-11-05T13:15:36.956Z,4.68
2022-11-05T13:18:10.449Z,4.63
2022-11-05T13:20:41.049Z,4.40
2022-11-05T13:23:17.495Z,4.63
2022-11-05T13:25:51.447Z,4.50
2022-11-05T13:28:32.679Z,5.60
2022-11-05T13:31:05.330Z,5.60
2022-11-05T13:33:38.929Z,4.60
2022-11-05T13:36:28.841Z,4.78
2022-11-05T13:39:06.889Z,4.78
2022-11-05T13:41:54.375Z,4.40
2022-11-05T13:45:06.058Z,5.90
2022-11-05T13:47:54.339Z,6.20
2022-11-05T13:50:46.261Z,5.35
2022-11-05T13:53:43.904Z,4.75
2022-11-05T13:56:23.956Z,5.30
2022-11-05T13:59:11.133Z,5.85
2022-11-05T14:01:49.373Z,4.73
2022-11-05T14:04:35.497Z,6.13
2022-11-05T14:07:10.661Z,6.35
2022-11-05T14:09:41.095Z,7.07
2022-11-05T14:12:21.097Z,6.97
2022-11-05T14:14:58.660Z,4.75
2022-11-05T14:17:32.100Z,6.18
2022-11-05T14:20:26.047Z,5.18
2022-11-05T14:22:54.446Z,10.55
2022-11-05T14:25:53.085Z,9.25
2022-11-05T14:28:44.517Z,6.85
2022-11-05T14:32:07.876Z,5.15
2022-11-05T14:34:44.586Z,5.93
2022-11-05T14:37:23.683Z,5.03
2022-11-05T14:39:52.003Z,6.70
2022-11-05T14:42:25.122Z,6.22
2022-11-05T14:45:00.045Z,6.00
2022-11-05T14:47:32.838Z,5.82
2022-11-05T14:50:09.449Z,5.65
2022-11-05T14:52:39.120Z,5.05
2022-11-05T14:55:24.033Z,5.07
2022-11-05T14:58:26.794Z,4.22
2022-11-05T15:00:57.993Z,5.63
2022-11-05T15:04:00.973Z,5.07
2022-11-05T15:06:32.462Z,5.72
2022-11-05T15:09:27.919Z,4.82
2022-11-05T15:12:12.987Z,7.30
2022-11-05T15:14:50.091Z,6.65
2022-11-05T15:17:23.390Z,6.60
2022-11-05T15:19:53.996Z,5.63
2022-11-05T15:22:32.143Z,6.45
2022-11-05T15:25:00.218Z,5.93
2022-11-05T15:27:43.800Z,6.20
2022-11-05T15:30:20.465Z,5.95
2022-11-05T15:32:48.484Z,5.20
2022-11-05T15:35:26.876Z,6.27
2022-11-05T15:38:01.713Z,5.18
2022-11-05T15:40:32.447Z,5.83
2022-11-05T15:43:11.376Z,7.30
2022-11-05T15:45:40.052Z,5.70
2022-11-05T15:48:20.790Z,4.55
2022-11-05T15:50:50.041Z,4.47
2022-11-05T15:53:44.113Z,4.95
2022-11-05T15:56:13.000Z,6.00
2022-11-05T15:58:48.096Z,6.43
2022-11-05T16:01:24.598Z,7.30
2022-11-05T16:03:53.973Z,3.00
2022-11-05T16:06:24.605Z,5.68
2022-11-05T16:08:52.573Z,4.30
2022-11-05T16:11:25.176Z,4.80
2022-11-05T16:13:54.294Z,3.65
2022-11-05T16:16:26.846Z,4.30
2022-11-05T16:18:54.766Z,4.47
2022-11-05T16:21:23.987Z,7.88
2022-11-05T16:23:55.606Z,5.68
2022-11-05T16:27:01.331Z,6.60
2022-11-05T16:29:31.089Z,5.15
2022-11-05T16:32:03.684Z,4.03
2022-11-05T16:34:39.113Z,4.78
2022-11-05T16:37:12.733Z,5.78
2022-11-05T16:39:40.573Z,4.30
2022-11-05T16:42:37.281Z,7.00
2022-11-05T16:45:06.497Z,8.25
2022-11-05T16:47:34.479Z,3.92
2022-11-05T16:50:02.358Z,4.72
2022-11-05T16:52:31.576Z,4.22
2022-11-05T16:54:59.257Z,5.90
2022-11-05T16:57:29.602Z,6.10
2022-11-05T16:59:59.037Z,5.25
2022-11-05T17:02:27.219Z,6.50
2022-11-05T17:04:55.134Z,8.63
2022-11-05T17:07:22.930Z,6.25
2022-11-05T17:09:52.110Z,8.90
2022-11-05T17:12:19.840Z,6.75
2022-11-05T17:14:47.561Z,8.90
2022-11-05T17:17:15.397Z,11.20
2022-11-05T17:19:47.884Z,14.83
2022-11-05T17:22:15.627Z,13.18
2022-11-05T17:24:43.359Z,7.05
2022-11-05T17:27:12.393Z,7.73
2022-11-05T17:29:40.107Z,4.50
2022-11-05T17:32:08.378Z,7.30
2022-11-05T17:34:36.374Z,5.97
2022-11-05T17:37:04.089Z,7.78
2022-11-05T17:39:32.211Z,7.60
2022-11-05T17:41:59.923Z,9.98
2022-11-05T17:44:29.130Z,6.75
2022-11-05T17:46:59.081Z,6.57
2022-11-05T17:49:26.814Z,6.88
2022-11-05T17:51:54.555Z,7.50
2022-11-05T17:54:22.320Z,7.23
2022-11-05T17:56:50.101Z,8.25
2022-11-05T17:59:17.819Z,8.65
2022-11-05T18:01:47.362Z,6.20
2022-11-05T18:04:15.226Z,9.27
2022-11-05T18:06:43.462Z,9.00
2022-11-05T18:09:11.732Z,6.50
2022-11-05T18:11:40.198Z,7.88
2022-11-05T18:14:08.253Z,10.05
2022-11-05T18:16:36.610Z,9.80
2022-11-05T18:19:06.167Z,9.60
2022-11-05T18:21:33.958Z,12.60
2022-11-05T18:24:04.145Z,11.65
2022-11-05T18:26:31.931Z,13.00
2022-11-05T18:29:02.055Z,20.60
2022-11-05T18:31:30.037Z,16.38
2022-11-05T18:33:59.675Z,15.98
2022-11-05T18:36:30.593Z,17.63
2022-11-05T18:38:59.233Z,15.10
2022-11-05T18:41:27.090Z,15.90
2022-11-05T18:43:59.751Z,12.73
2022-11-05T18:46:56.062Z,13.77
2022-11-05T18:49:15.777Z,17.27
2022-11-05T18:51:44.942Z,12.30
2022-11-05T18:54:12.923Z,15.48
2022-11-05T18:56:45.230Z,12.85
2022-11-05T19:02:02.109Z,12.83
2022-11-05T19:04:30.537Z,11.47
2022-11-05T19:07:04.521Z,12.40
2022-11-05T19:09:33.127Z,11.48
2022-11-05T19:12:00.891Z,11.60
2022-11-05T19:14:29.965Z,10.13
2022-11-05T19:16:58.159Z,8.95
2022-11-05T19:19:29.113Z,11.90
2022-11-05T19:21:56.996Z,11.43
2022-11-05T19:24:26.153Z,14.30
2022-11-05T19:26:54.000Z,9.60
2022-11-05T19:29:21.810Z,10.73
2022-11-05T19:31:51.819Z,10.20
2022-11-05T19:34:21.863Z,11.13
2022-11-05T19:36:49.620Z,16.80
2022-11-05T19:39:17.364Z,14.80
2022-11-05T19:41:47.760Z,13.77
2022-11-05T19:44:15.586Z,12.60
2022-11-05T19:46:44.886Z,11.30
2022-11-05T19:49:12.775Z,17.77
2022-11-05T19:51:40.733Z,16.35
2022-11-05T19:54:08.911Z,15.43
2022-11-05T19:56:38.474Z,15.68
2022-11-05T19:59:07.965Z,11.87
2022-11-05T20:01:36.540Z,11.77
2022-11-05T20:04:05.543Z,12.85
2022-11-05T20:06:38.575Z,12.00
2022-11-05T20:09:27.210Z,10.68
2022-11-05T20:11:56.292Z,13.40
2022-11-05T20:14:26.966Z,15.20
2022-11-05T20:16:54.964Z,16.88
2022-11-05T20:19:23.757Z,13.60
2022-11-05T20:21:51.636Z,13.10
2022-11-05T20:24:25.216Z,10.23
2022-11-05T20:26:54.476Z,14.05
2022-11-05T20:29:23.248Z,15.43
2022-11-05T20:31:53.414Z,13.75
2022-11-05T20:34:21.353Z,11.90
2022-11-05T20:36:51.530Z,17.63
2022-11-05T20:39:21.134Z,12.37
2022-11-05T20:41:49.010Z,12.10
2022-11-05T20:44:16.743Z,13.10
2022-11-05T20:46:44.833Z,18.10
2022-11-05T20:49:13.980Z,17.77
2022-11-05T20:51:41.661Z,14.23
2022-11-05T20:54:10.263Z,14.55
2022-11-05T20:56:37.959Z,17.00
2022-11-05T20:59:06.293Z,17.45
2022-11-05T21:01:35.345Z,21.55
2022-11-05T21:04:04.383Z,17.10
2022-11-05T21:06:34.807Z,15.55
2022-11-05T21:09:03.171Z,12.13
2022-11-05T21:11:51.120Z,15.95
2022-11-05T21:14:18.860Z,17.58
2022-11-05T21:16:48.988Z,17.42
2022-11-05T21:19:16.776Z,14.88
2022-11-05T21:21:45.881Z,13.50
2022-11-05T21:24:13.577Z,12.32
2022-11-05T21:26:41.338Z,16.77
2022-11-05T21:29:09.126Z,14.55
2022-11-05T21:31:37.075Z,14.63
2022-11-05T21:34:05.194Z,14.35
2022-11-05T21:36:33.034Z,15.00
2022-11-05T21:39:02.204Z,10.13
2022-11-05T21:41:29.974Z,10.23
2022-11-05T21:43:58.076Z,14.97
2022-11-05T21:46:25.783Z,19.33
2022-11-05T21:48:53.548Z,21.53
2022-11-05T21:51:38.714Z,17.97
2022-11-05T21:54:25.479Z,14.95
2022-11-05T21:57:11.164Z,17.25
2022-11-05T21:59:51.930Z,22.25
2022-11-05T22:02:22.331Z,13.90
2022-11-05T22:04:52.129Z,18.40
2022-11-05T22:07:22.809Z,22.50
2022-11-05T22:09:52.035Z,26.13
2022-11-05T22:12:19.786Z,30.88
2022-11-05T22:14:49.844Z,28.33
2022-11-05T22:17:18.255Z,27.40
2022-11-05T22:19:46.304Z,20.50
2022-11-05T22:22:14.802Z,23.55
2022-11-05T22:24:43.229Z,25.55
2022-11-05T22:27:15.010Z,25.20
2022-11-05T22:29:43.563Z,22.95
2022-11-05T22:32:13.936Z,24.97
2022-11-05T22:34:41.650Z,19.75
2022-11-05T22:37:09.429Z,24.53
2022-11-05T22:39:37.267Z,28.20
2022-11-05T22:42:08.507Z,17.83
2022-11-05T22:44:38.537Z,19.02
2022-11-05T22:47:06.880Z,17.83
2022-11-05T22:49:35.048Z,18.30
2022-11-05T22:52:05.264Z,15.20
2022-11-05T22:54:38.808Z,15.43
2022-11-05T22:57:06.942Z,15.17
2022-11-05T22:59:34.674Z,14.40
2022-11-05T23:02:09.235Z,13.75
2022-11-05T23:04:37.844Z,12.85
2022-11-05T23:07:27.272Z,15.43
2022-11-05T23:10:12.921Z,16.83
2022-11-05T23:12:42.660Z,17.00
2022-11-05T23:15:31.212Z,16.35
2022-11-05T23:18:18.493Z,16.15
2022-11-05T23:21:03.886Z,17.85
2022-11-05T23:23:49.086Z,21.58
2022-11-05T23:26:34.469Z,24.37
2022-11-05T23:29:02.296Z,18.90
2022-11-05T23:31:47.558Z,17.10
2022-11-05T23:34:16.611Z,20.77
2022-11-05T23:37:01.824Z,14.13
2022-11-05T23:39:29.667Z,14.35
2022-11-05T23:42:14.790Z,13.40
2022-11-05T23:45:00.229Z,13.38
2022-11-05T23:47:50.783Z,13.70
2022-11-05T23:50:19.884Z,14.67
2022-11-05T23:52:47.592Z,14.43
2022-11-05T23:55:15.386Z,12.27
2022-11-05T23:57:45.282Z,13.25
